JBU4337 KPBI-KISP
Flight info
| Callsign | JBU4337 |
|---|---|
| Flight time | N/A |
| Altitude | 37000 |
| Route | SLIDZ3 LENDS PELCN Y309 FLRDA SAGGY CHIEZ Q161 KALDA SARDI1 |
| Aircraft | A320/M-SDE3FGHIRWY/LB1 |
Departure
| Time | 2026-04-26 15:18 |
|---|---|
| Airport | Palm Beach International Airport (KPBI) |
Arrival
| Time | N/A |
|---|---|
| Airport | Long Island MacArthur Airport (KISP) |
| Time | Latitude | Longitude | Altitude | Speed | Heading |
|---|---|---|---|---|---|
| 2026-04-26 14:52 | 26.68524 | -80.08933 | 30 ft | 0 kts | 2° |
| 2026-04-26 15:10 | 26.68523 | -80.08933 | 26 ft | 2 kts | 2° |
| 2026-04-26 15:10 | 26.68500 | -80.08934 | 29 ft | 2 kts | 2° |
| 2026-04-26 15:10 | 26.68483 | -80.08935 | 29 ft | 2 kts | 2° |
| 2026-04-26 15:11 | 26.68466 | -80.08937 | 28 ft | 2 kts | 342° |
| 2026-04-26 15:11 | 26.68454 | -80.08926 | 30 ft | 1 kts | 277° |
| 2026-04-26 15:12 | 26.68454 | -80.08928 | 29 ft | 1 kts | 277° |
| 2026-04-26 15:13 | 26.68455 | -80.08948 | 28 ft | 6 kts | 271° |
| 2026-04-26 15:13 | 26.68449 | -80.09034 | 27 ft | 13 kts | 264° |
| 2026-04-26 15:13 | 26.68390 | -80.09103 | 28 ft | 15 kts | 193° |
| 2026-04-26 15:13 | 26.68359 | -80.09200 | 26 ft | 15 kts | 275° |
| 2026-04-26 15:14 | 26.68367 | -80.09328 | 25 ft | 18 kts | 272° |
| 2026-04-26 15:14 | 26.68372 | -80.09472 | 25 ft | 20 kts | 272° |
| 2026-04-26 15:14 | 26.68379 | -80.09628 | 27 ft | 18 kts | 273° |
| 2026-04-26 15:14 | 26.68387 | -80.09776 | 25 ft | 20 kts | 273° |
| 2026-04-26 15:15 | 26.68393 | -80.09940 | 25 ft | 22 kts | 273° |
| 2026-04-26 15:15 | 26.68400 | -80.10096 | 25 ft | 19 kts | 272° |
| 2026-04-26 15:15 | 26.68406 | -80.10253 | 25 ft | 21 kts | 272° |
| 2026-04-26 15:15 | 26.68413 | -80.10416 | 25 ft | 21 kts | 272° |
| 2026-04-26 15:16 | 26.68420 | -80.10582 | 28 ft | 22 kts | 273° |
| 2026-04-26 15:16 | 26.68429 | -80.10759 | 25 ft | 23 kts | 273° |
| 2026-04-26 15:16 | 26.68376 | -80.10822 | 25 ft | 11 kts | 182° |
| 2026-04-26 15:16 | 26.68317 | -80.10773 | 25 ft | 13 kts | 89° |
| 2026-04-26 15:17 | 26.68313 | -80.10650 | 25 ft | 28 kts | 93° |
| 2026-04-26 15:17 | 26.68300 | -80.10381 | 25 ft | 76 kts | 93° |
| 2026-04-26 15:17 | 26.68247 | -80.09171 | 26 ft | 151 kts | 93° |
| 2026-04-26 15:17 | 26.68173 | -80.07846 | 166 ft | 181 kts | 92° |
| 2026-04-26 15:18 | 26.68159 | -80.06489 | 946 ft | 166 kts | 93° |
| 2026-04-26 15:18 | 26.68298 | -80.05146 | 1389 ft | 185 kts | 77° |
| 2026-04-26 15:18 | 26.68835 | -80.03742 | 1667 ft | 209 kts | 63° |
| 2026-04-26 15:18 | 26.69569 | -80.02223 | 1975 ft | 234 kts | 63° |
| 2026-04-26 15:19 | 26.70369 | -80.00535 | 2364 ft | 258 kts | 63° |
| 2026-04-26 15:19 | 26.71225 | -79.98712 | 3011 ft | 270 kts | 63° |
| 2026-04-26 15:19 | 26.72252 | -79.96929 | 3852 ft | 275 kts | 50° |
| 2026-04-26 15:19 | 26.73513 | -79.95302 | 4768 ft | 278 kts | 50° |
| 2026-04-26 15:20 | 26.74790 | -79.93658 | 5649 ft | 282 kts | 50° |
| 2026-04-26 15:20 | 26.76083 | -79.91991 | 6489 ft | 286 kts | 49° |
| 2026-04-26 15:20 | 26.77393 | -79.90294 | 7289 ft | 290 kts | 49° |
| 2026-04-26 15:20 | 26.78719 | -79.88574 | 8100 ft | 294 kts | 48° |
| 2026-04-26 15:21 | 26.80064 | -79.86831 | 8914 ft | 298 kts | 48° |
| 2026-04-26 15:21 | 26.81424 | -79.85066 | 9719 ft | 301 kts | 47° |
| 2026-04-26 15:21 | 26.82802 | -79.83282 | 10437 ft | 305 kts | 47° |
| 2026-04-26 15:21 | 26.84193 | -79.81480 | 11183 ft | 307 kts | 47° |
| 2026-04-26 15:22 | 26.85593 | -79.79660 | 11917 ft | 310 kts | 46° |
| 2026-04-26 15:22 | 26.87006 | -79.77823 | 12647 ft | 313 kts | 46° |
| 2026-04-26 15:22 | 26.88433 | -79.75970 | 13372 ft | 315 kts | 46° |
| 2026-04-26 15:22 | 26.89854 | -79.74128 | 14051 ft | 318 kts | 46° |
| 2026-04-26 15:23 | 26.91335 | -79.72210 | 14320 ft | 336 kts | 46° |
| 2026-04-26 15:23 | 26.92945 | -79.70219 | 14539 ft | 352 kts | 43° |
| 2026-04-26 15:23 | 26.94693 | -79.68265 | 15049 ft | 357 kts | 41° |
| 2026-04-26 15:23 | 26.96505 | -79.66345 | 15631 ft | 360 kts | 40° |
| 2026-04-26 15:24 | 26.98356 | -79.64433 | 16212 ft | 363 kts | 39° |
| 2026-04-26 15:24 | 27.00229 | -79.62512 | 16802 ft | 367 kts | 39° |
| 2026-04-26 15:24 | 27.02114 | -79.60569 | 17390 ft | 370 kts | 39° |
| 2026-04-26 15:24 | 27.04007 | -79.58597 | 17977 ft | 373 kts | 40° |
| 2026-04-26 15:25 | 27.05909 | -79.56597 | 18536 ft | 376 kts | 40° |
| 2026-04-26 15:25 | 27.07201 | -79.55231 | 18888 ft | 378 kts | 40° |
| 2026-04-26 15:25 | 27.09745 | -79.52530 | 19593 ft | 383 kts | 40° |
| 2026-04-26 15:25 | 27.11686 | -79.50467 | 20125 ft | 386 kts | 40° |
| 2026-04-26 15:26 | 27.13643 | -79.48391 | 20661 ft | 389 kts | 39° |
| 2026-04-26 15:26 | 27.15615 | -79.46301 | 21185 ft | 392 kts | 39° |
| 2026-04-26 15:26 | 27.17606 | -79.44196 | 21708 ft | 394 kts | 39° |
| 2026-04-26 15:26 | 27.19613 | -79.42073 | 22223 ft | 397 kts | 39° |
| 2026-04-26 15:27 | 27.21628 | -79.39940 | 22752 ft | 400 kts | 39° |
| 2026-04-26 15:27 | 27.23658 | -79.37790 | 23268 ft | 403 kts | 39° |
| 2026-04-26 15:27 | 27.25705 | -79.35617 | 23744 ft | 406 kts | 39° |
| 2026-04-26 15:27 | 27.27764 | -79.33430 | 24179 ft | 408 kts | 39° |
| 2026-04-26 15:28 | 27.29834 | -79.31231 | 24613 ft | 410 kts | 39° |
| 2026-04-26 15:28 | 27.31913 | -79.29022 | 25039 ft | 413 kts | 39° |
| 2026-04-26 15:28 | 27.34003 | -79.26799 | 25467 ft | 415 kts | 39° |
| 2026-04-26 15:28 | 27.36105 | -79.24564 | 25883 ft | 417 kts | 39° |
| 2026-04-26 15:29 | 27.38216 | -79.22317 | 26290 ft | 419 kts | 39° |
| 2026-04-26 15:29 | 27.40336 | -79.20062 | 26691 ft | 421 kts | 39° |
| 2026-04-26 15:29 | 27.44606 | -79.15500 | 27473 ft | 425 kts | 38° |
| 2026-04-26 15:30 | 27.48915 | -79.10895 | 28226 ft | 429 kts | 38° |
| 2026-04-26 15:30 | 27.51083 | -79.08578 | 28601 ft | 431 kts | 38° |
| 2026-04-26 15:30 | 27.53265 | -79.06246 | 28962 ft | 433 kts | 38° |
| 2026-04-26 15:31 | 27.55455 | -79.03902 | 29327 ft | 436 kts | 39° |
| 2026-04-26 15:31 | 27.59887 | -78.99157 | 30005 ft | 442 kts | 39° |
| 2026-04-26 15:31 | 27.62119 | -78.96764 | 30320 ft | 444 kts | 39° |
| 2026-04-26 15:32 | 27.65858 | -78.92770 | 30828 ft | 446 kts | 36° |
| 2026-04-26 15:32 | 27.69363 | -78.90439 | 31106 ft | 437 kts | 15° |
| 2026-04-26 15:32 | 27.72296 | -78.89538 | 31231 ft | 437 kts | 6° |
| 2026-04-26 15:33 | 27.75317 | -78.89138 | 31355 ft | 439 kts | 0° |
| 2026-04-26 15:33 | 27.78380 | -78.88991 | 31477 ft | 442 kts | 358° |
| 2026-04-26 15:33 | 27.81427 | -78.88889 | 31626 ft | 445 kts | 359° |
| 2026-04-26 15:33 | 27.84524 | -78.88703 | 31852 ft | 446 kts | 0° |
| 2026-04-26 15:34 | 27.87620 | -78.88396 | 32118 ft | 447 kts | 2° |
| 2026-04-26 15:34 | 27.90708 | -78.87985 | 32397 ft | 447 kts | 4° |
| 2026-04-26 15:34 | 27.93788 | -78.87510 | 32684 ft | 447 kts | 4° |
| 2026-04-26 15:34 | 27.96864 | -78.87014 | 32949 ft | 446 kts | 4° |
| 2026-04-26 15:35 | 27.99979 | -78.86525 | 33226 ft | 446 kts | 4° |
| 2026-04-26 15:35 | 28.03008 | -78.86072 | 33504 ft | 445 kts | 4° |
| 2026-04-26 15:35 | 28.06075 | -78.85634 | 33791 ft | 444 kts | 4° |
| 2026-04-26 15:35 | 28.09133 | -78.85205 | 34070 ft | 443 kts | 3° |
| 2026-04-26 15:36 | 28.12191 | -78.84781 | 34315 ft | 442 kts | 3° |
| 2026-04-26 15:36 | 28.15284 | -78.84352 | 34570 ft | 442 kts | 3° |
| 2026-04-26 15:36 | 28.18293 | -78.83934 | 34814 ft | 441 kts | 3° |
| 2026-04-26 15:36 | 28.21339 | -78.83507 | 35083 ft | 441 kts | 3° |
| 2026-04-26 15:37 | 28.24385 | -78.83079 | 35291 ft | 442 kts | 3° |
| 2026-04-26 15:37 | 28.27437 | -78.82645 | 35514 ft | 442 kts | 3° |
| 2026-04-26 15:37 | 28.30487 | -78.82210 | 35748 ft | 442 kts | 3° |
| 2026-04-26 15:37 | 28.33532 | -78.81776 | 35980 ft | 441 kts | 3° |
| 2026-04-26 15:38 | 28.36579 | -78.81340 | 36210 ft | 441 kts | 3° |
| 2026-04-26 15:38 | 28.39623 | -78.80907 | 36438 ft | 440 kts | 3° |
| 2026-04-26 15:38 | 28.42661 | -78.80475 | 36653 ft | 440 kts | 3° |
| 2026-04-26 15:38 | 28.45695 | -78.80043 | 36873 ft | 440 kts | 3° |
| 2026-04-26 15:39 | 28.48734 | -78.79613 | 36992 ft | 440 kts | 3° |
| 2026-04-26 15:39 | 28.51771 | -78.79185 | 37015 ft | 440 kts | 3° |
| 2026-04-26 15:39 | 28.56828 | -78.78469 | 37014 ft | 441 kts | 3° |
| 2026-04-26 15:40 | 28.63944 | -78.77449 | 37014 ft | 441 kts | 3° |
| 2026-04-26 15:40 | 28.70029 | -78.76577 | 37014 ft | 441 kts | 3° |
| 2026-04-26 15:41 | 28.76062 | -78.75715 | 37016 ft | 441 kts | 3° |
| 2026-04-26 15:41 | 28.82154 | -78.74848 | 37031 ft | 442 kts | 3° |
| 2026-04-26 15:42 | 28.88260 | -78.73975 | 37031 ft | 442 kts | 3° |
| 2026-04-26 15:42 | 28.94363 | -78.73098 | 37030 ft | 442 kts | 3° |
| 2026-04-26 15:43 | 29.00463 | -78.72220 | 37031 ft | 442 kts | 3° |
| 2026-04-26 15:44 | 29.09610 | -78.70907 | 37046 ft | 442 kts | 3° |
| 2026-04-26 15:44 | 29.18762 | -78.69592 | 37034 ft | 442 kts | 3° |
| 2026-04-26 15:45 | 29.27913 | -78.68272 | 37028 ft | 442 kts | 4° |
| 2026-04-26 15:46 | 29.37059 | -78.66849 | 37009 ft | 447 kts | 7° |
| 2026-04-26 15:46 | 29.42138 | -78.65378 | 37004 ft | 452 kts | 13° |
| 2026-04-26 15:47 | 29.52053 | -78.61475 | 37006 ft | 454 kts | 15° |
| 2026-04-26 15:48 | 29.58053 | -78.59205 | 37011 ft | 454 kts | 13° |
| 2026-04-26 15:48 | 29.64084 | -78.57048 | 37032 ft | 454 kts | 13° |
| 2026-04-26 15:49 | 29.70118 | -78.54898 | 37022 ft | 454 kts | 13° |
| 2026-04-26 15:49 | 29.76146 | -78.52728 | 37023 ft | 454 kts | 13° |
| 2026-04-26 15:50 | 29.82174 | -78.50538 | 37022 ft | 454 kts | 13° |
| 2026-04-26 15:50 | 29.88198 | -78.48340 | 37020 ft | 454 kts | 13° |
| 2026-04-26 15:51 | 29.94221 | -78.46141 | 37031 ft | 454 kts | 13° |
| 2026-04-26 15:51 | 30.00234 | -78.43945 | 37022 ft | 453 kts | 13° |
| 2026-04-26 15:52 | 30.06241 | -78.41751 | 37016 ft | 453 kts | 13° |
| 2026-04-26 15:52 | 30.12246 | -78.39564 | 37008 ft | 452 kts | 12° |
| 2026-04-26 15:53 | 30.18381 | -78.38355 | 37007 ft | 447 kts | 4° |
| 2026-04-26 15:53 | 30.24544 | -78.37441 | 37006 ft | 447 kts | 4° |
| 2026-04-26 15:54 | 30.30670 | -78.36528 | 37004 ft | 447 kts | 4° |
| 2026-04-26 15:54 | 30.36833 | -78.35601 | 37004 ft | 447 kts | 4° |
| 2026-04-26 15:55 | 30.42996 | -78.34653 | 37013 ft | 447 kts | 5° |
| 2026-04-26 15:55 | 30.49132 | -78.33342 | 37014 ft | 449 kts | 8° |
| 2026-04-26 15:56 | 30.55233 | -78.31797 | 37008 ft | 449 kts | 8° |
| 2026-04-26 15:56 | 30.60347 | -78.30527 | 37005 ft | 448 kts | 8° |
| 2026-04-26 15:57 | 30.66457 | -78.29091 | 36993 ft | 448 kts | 7° |
| 2026-04-26 15:57 | 30.72570 | -78.27679 | 37013 ft | 448 kts | 7° |
| 2026-04-26 15:58 | 30.78629 | -78.26268 | 37002 ft | 447 kts | 7° |
| 2026-04-26 15:58 | 30.84715 | -78.24846 | 37006 ft | 446 kts | 7° |
| 2026-04-26 15:59 | 30.90795 | -78.23411 | 36995 ft | 445 kts | 7° |
| 2026-04-26 15:59 | 30.96864 | -78.21996 | 36996 ft | 445 kts | 7° |
| 2026-04-26 16:00 | 31.02944 | -78.20648 | 37005 ft | 445 kts | 7° |
| 2026-04-26 16:00 | 31.09019 | -78.19315 | 36993 ft | 444 kts | 7° |
| 2026-04-26 16:01 | 31.15097 | -78.17972 | 37001 ft | 445 kts | 7° |
| 2026-04-26 16:01 | 31.21177 | -78.16621 | 36997 ft | 445 kts | 7° |
| 2026-04-26 16:02 | 31.27251 | -78.15263 | 36999 ft | 445 kts | 7° |
| 2026-04-26 16:02 | 31.33326 | -78.13907 | 36998 ft | 444 kts | 7° |
| 2026-04-26 16:03 | 31.39401 | -78.12544 | 36988 ft | 444 kts | 7° |
| 2026-04-26 16:03 | 31.45478 | -78.11228 | 36987 ft | 443 kts | 6° |
| 2026-04-26 16:04 | 31.51577 | -78.10180 | 36992 ft | 443 kts | 4° |
| 2026-04-26 16:04 | 31.57647 | -78.09225 | 36993 ft | 444 kts | 4° |
| 2026-04-26 16:05 | 31.63764 | -78.08214 | 36990 ft | 444 kts | 5° |
| 2026-04-26 16:05 | 31.69880 | -78.07162 | 36988 ft | 444 kts | 5° |
| 2026-04-26 16:06 | 31.75995 | -78.06105 | 36984 ft | 444 kts | 5° |
| 2026-04-26 16:06 | 31.82116 | -78.05053 | 36988 ft | 445 kts | 5° |
| 2026-04-26 16:07 | 31.88246 | -78.04004 | 36972 ft | 446 kts | 5° |
| 2026-04-26 16:07 | 31.94383 | -78.02942 | 36965 ft | 446 kts | 5° |
| 2026-04-26 16:08 | 32.00527 | -78.01878 | 36968 ft | 446 kts | 5° |
| 2026-04-26 16:08 | 32.06675 | -78.00813 | 36988 ft | 447 kts | 4° |
| 2026-04-26 16:09 | 32.12833 | -77.99755 | 36981 ft | 448 kts | 4° |
| 2026-04-26 16:09 | 32.18957 | -77.98694 | 36975 ft | 448 kts | 4° |
| 2026-04-26 16:10 | 32.25128 | -77.97620 | 36972 ft | 448 kts | 4° |
| 2026-04-26 16:10 | 32.31298 | -77.96551 | 36980 ft | 448 kts | 4° |
| 2026-04-26 16:11 | 32.37467 | -77.95473 | 36978 ft | 449 kts | 5° |
| 2026-04-26 16:11 | 32.43698 | -77.94392 | 36955 ft | 458 kts | 5° |
| 2026-04-26 16:12 | 32.50038 | -77.93303 | 36958 ft | 462 kts | 5° |
| 2026-04-26 16:12 | 32.59581 | -77.91622 | 36958 ft | 463 kts | 5° |
| 2026-04-26 16:13 | 32.65954 | -77.90506 | 36953 ft | 463 kts | 5° |
| 2026-04-26 16:13 | 32.72336 | -77.89390 | 36958 ft | 464 kts | 5° |
| 2026-04-26 16:14 | 32.78717 | -77.88274 | 36966 ft | 464 kts | 5° |
| 2026-04-26 16:15 | 32.88301 | -77.86581 | 36967 ft | 464 kts | 5° |
| 2026-04-26 16:15 | 32.94688 | -77.85454 | 36968 ft | 464 kts | 5° |
| 2026-04-26 16:16 | 33.04267 | -77.83768 | 36971 ft | 464 kts | 5° |
| 2026-04-26 16:16 | 33.10613 | -77.82638 | 36985 ft | 465 kts | 5° |
| 2026-04-26 16:17 | 33.17023 | -77.81503 | 36949 ft | 467 kts | 5° |
| 2026-04-26 16:17 | 33.23454 | -77.80363 | 36945 ft | 468 kts | 5° |
| 2026-04-26 16:18 | 33.33178 | -77.78647 | 36951 ft | 469 kts | 5° |
| 2026-04-26 16:19 | 33.42848 | -77.76924 | 36964 ft | 472 kts | 5° |
| 2026-04-26 16:20 | 33.52603 | -77.75179 | 36958 ft | 473 kts | 5° |
| 2026-04-26 16:20 | 33.62382 | -77.73430 | 37001 ft | 474 kts | 4° |
| 2026-04-26 16:21 | 33.68916 | -77.72250 | 36986 ft | 476 kts | 5° |
| 2026-04-26 16:21 | 33.75449 | -77.70921 | 36989 ft | 477 kts | 6° |
| 2026-04-26 16:22 | 33.81971 | -77.69438 | 36983 ft | 477 kts | 7° |
| 2026-04-26 16:22 | 33.88485 | -77.67961 | 37000 ft | 476 kts | 6° |
| 2026-04-26 16:23 | 33.95013 | -77.66533 | 36986 ft | 477 kts | 6° |
| 2026-04-26 16:23 | 34.01550 | -77.65113 | 36986 ft | 478 kts | 6° |
| 2026-04-26 16:24 | 34.08096 | -77.63690 | 36985 ft | 478 kts | 6° |
| 2026-04-26 16:24 | 34.14641 | -77.62254 | 37008 ft | 478 kts | 6° |
| 2026-04-26 16:25 | 34.21191 | -77.60814 | 37002 ft | 479 kts | 6° |
| 2026-04-26 16:25 | 34.27749 | -77.59375 | 36995 ft | 479 kts | 6° |
| 2026-04-26 16:26 | 34.33196 | -77.58173 | 36981 ft | 480 kts | 6° |
| 2026-04-26 16:26 | 34.40893 | -77.56474 | 36996 ft | 482 kts | 6° |
| 2026-04-26 16:27 | 34.47503 | -77.55001 | 36991 ft | 483 kts | 6° |
| 2026-04-26 16:27 | 34.53985 | -77.52772 | 36992 ft | 491 kts | 23° |
| 2026-04-26 16:28 | 34.60126 | -77.49112 | 36996 ft | 492 kts | 23° |
| 2026-04-26 16:28 | 34.66233 | -77.45436 | 37008 ft | 493 kts | 24° |
| 2026-04-26 16:29 | 34.72385 | -77.41736 | 37004 ft | 494 kts | 24° |
| 2026-04-26 16:29 | 34.78549 | -77.38039 | 37003 ft | 494 kts | 23° |
| 2026-04-26 16:30 | 34.84717 | -77.34334 | 37046 ft | 495 kts | 23° |
| 2026-04-26 16:30 | 34.90885 | -77.30627 | 37017 ft | 494 kts | 23° |
| 2026-04-26 16:31 | 34.97052 | -77.26910 | 37042 ft | 494 kts | 23° |
| 2026-04-26 16:31 | 35.03213 | -77.23175 | 37051 ft | 495 kts | 24° |
| 2026-04-26 16:32 | 35.08340 | -77.20066 | 37053 ft | 496 kts | 23° |
| 2026-04-26 16:32 | 35.15571 | -77.15692 | 37046 ft | 496 kts | 23° |
| 2026-04-26 16:33 | 35.21759 | -77.11930 | 37045 ft | 497 kts | 23° |
| 2026-04-26 16:33 | 35.27943 | -77.08153 | 37058 ft | 497 kts | 23° |
| 2026-04-26 16:34 | 35.34127 | -77.04373 | 37066 ft | 497 kts | 23° |
| 2026-04-26 16:34 | 35.40315 | -77.00597 | 37075 ft | 497 kts | 23° |
| 2026-04-26 16:35 | 35.46463 | -76.96849 | 37079 ft | 497 kts | 23° |
| 2026-04-26 16:35 | 35.52432 | -76.93191 | 37082 ft | 497 kts | 23° |
| 2026-04-26 16:36 | 35.58585 | -76.89402 | 37073 ft | 491 kts | 24° |
| 2026-04-26 16:36 | 35.64700 | -76.85667 | 37052 ft | 490 kts | 23° |
| 2026-04-26 16:37 | 35.70828 | -76.81970 | 37056 ft | 491 kts | 23° |
| 2026-04-26 16:37 | 35.75923 | -76.78881 | 37063 ft | 491 kts | 23° |
| 2026-04-26 16:38 | 35.83047 | -76.74531 | 37084 ft | 492 kts | 23° |
| 2026-04-26 16:38 | 35.89176 | -76.70770 | 37108 ft | 492 kts | 23° |
| 2026-04-26 16:39 | 35.95271 | -76.66901 | 37117 ft | 493 kts | 25° |
| 2026-04-26 16:39 | 36.01279 | -76.62803 | 37145 ft | 494 kts | 26° |
| 2026-04-26 16:40 | 36.07270 | -76.58661 | 37127 ft | 493 kts | 26° |